sensor_id;sensor_type;location;lat;lon;timestamp;pressure;altitude;pressure_sealevel;temperature
24714;BMP280;12820;51.580;5.010;2022-08-11T00:04:24;102098.94;;;24.55
24714;BMP280;12820;51.580;5.010;2022-08-11T00:09:34;102101.88;;;24.48
24714;BMP280;12820;51.580;5.010;2022-08-11T00:14:42;102099.72;;;24.40
24714;BMP280;12820;51.580;5.010;2022-08-11T00:19:46;102099.19;;;24.34
24714;BMP280;12820;51.580;5.010;2022-08-11T00:25:11;102107.38;;;24.25
24714;BMP280;12820;51.580;5.010;2022-08-11T00:30:14;102104.25;;;24.19
24714;BMP280;12820;51.580;5.010;2022-08-11T00:35:17;102108.00;;;24.14
24714;BMP280;12820;51.580;5.010;2022-08-11T00:40:54;102107.50;;;24.06
24714;BMP280;12820;51.580;5.010;2022-08-11T00:51:40;102111.72;;;23.90
24714;BMP280;12820;51.580;5.010;2022-08-11T01:03:07;102105.53;;;23.76
24714;BMP280;12820;51.580;5.010;2022-08-11T01:08:24;102109.31;;;23.69
24714;BMP280;12820;51.580;5.010;2022-08-11T01:35:34;102107.50;;;23.37
24714;BMP280;12820;51.580;5.010;2022-08-11T01:46:15;102109.94;;;23.20
24714;BMP280;12820;51.580;5.010;2022-08-11T01:51:34;102104.41;;;23.11
24714;BMP280;12820;51.580;5.010;2022-08-11T01:57:05;102109.13;;;23.02
24714;BMP280;12820;51.580;5.010;2022-08-11T02:02:26;102116.38;;;22.93
24714;BMP280;12820;51.580;5.010;2022-08-11T02:07:57;102126.16;;;22.85
24714;BMP280;12820;51.580;5.010;2022-08-11T02:13:17;102122.25;;;22.77
24714;BMP280;12820;51.580;5.010;2022-08-11T02:18:39;102123.56;;;22.67
24714;BMP280;12820;51.580;5.010;2022-08-11T02:24:05;102117.00;;;22.60
24714;BMP280;12820;51.580;5.010;2022-08-11T02:29:52;102118.13;;;22.53
24714;BMP280;12820;51.580;5.010;2022-08-11T02:35:11;102114.91;;;22.48
24714;BMP280;12820;51.580;5.010;2022-08-11T02:40:22;102113.53;;;22.42
24714;BMP280;12820;51.580;5.010;2022-08-11T02:45:36;102103.53;;;22.36
24714;BMP280;12820;51.580;5.010;2022-08-11T02:50:50;102098.66;;;22.30
24714;BMP280;12820;51.580;5.010;2022-08-11T02:56:15;102106.53;;;22.25
24714;BMP280;12820;51.580;5.010;2022-08-11T03:01:35;102110.31;;;22.17
24714;BMP280;12820;51.580;5.010;2022-08-11T03:06:49;102105.38;;;22.13
24714;BMP280;12820;51.580;5.010;2022-08-11T03:17:56;102113.63;;;22.00
24714;BMP280;12820;51.580;5.010;2022-08-11T03:28:42;102118.34;;;21.89
24714;BMP280;12820;51.580;5.010;2022-08-11T03:33:50;102113.50;;;21.82
24714;BMP280;12820;51.580;5.010;2022-08-11T03:39:09;102111.88;;;21.79
24714;BMP280;12820;51.580;5.010;2022-08-11T03:44:27;102113.13;;;21.70
24714;BMP280;12820;51.580;5.010;2022-08-11T04:00:21;102107.06;;;21.51
24714;BMP280;12820;51.580;5.010;2022-08-11T04:17:00;102108.44;;;21.38
24714;BMP280;12820;51.580;5.010;2022-08-11T04:27:44;102108.75;;;21.30
24714;BMP280;12820;51.580;5.010;2022-08-11T04:33:08;102111.47;;;21.25
24714;BMP280;12820;51.580;5.010;2022-08-11T04:43:45;102104.25;;;21.15
24714;BMP280;12820;51.580;5.010;2022-08-11T04:49:25;102107.78;;;21.11
24714;BMP280;12820;51.580;5.010;2022-08-11T04:54:53;102102.66;;;21.11
24714;BMP280;12820;51.580;5.010;2022-08-11T05:00:29;102113.09;;;21.05
24714;BMP280;12820;51.580;5.010;2022-08-11T05:06:31;102118.25;;;21.04
24714;BMP280;12820;51.580;5.010;2022-08-11T05:11:57;102115.75;;;21.02
24714;BMP280;12820;51.580;5.010;2022-08-11T05:17:08;102113.28;;;21.01
24714;BMP280;12820;51.580;5.010;2022-08-11T05:22:30;102109.78;;;21.02
24714;BMP280;12820;51.580;5.010;2022-08-11T05:28:05;102114.88;;;21.03
24714;BMP280;12820;51.580;5.010;2022-08-11T05:33:33;102116.50;;;21.06
24714;BMP280;12820;51.580;5.010;2022-08-11T05:38:58;102112.13;;;21.09
24714;BMP280;12820;51.580;5.010;2022-08-11T05:44:19;102113.69;;;21.13
24714;BMP280;12820;51.580;5.010;2022-08-11T05:49:40;102114.38;;;21.17
24714;BMP280;12820;51.580;5.010;2022-08-11T05:55:04;102117.59;;;21.21
24714;BMP280;12820;51.580;5.010;2022-08-11T06:00:25;102114.88;;;21.26
24714;BMP280;12820;51.580;5.010;2022-08-11T06:05:33;102120.66;;;21.31
24714;BMP280;12820;51.580;5.010;2022-08-11T06:10:45;102120.47;;;21.35
24714;BMP280;12820;51.580;5.010;2022-08-11T06:15:50;102123.69;;;21.40
24714;BMP280;12820;51.580;5.010;2022-08-11T06:20:56;102119.25;;;21.45
24714;BMP280;12820;51.580;5.010;2022-08-11T06:25:59;102119.91;;;21.50
24714;BMP280;12820;51.580;5.010;2022-08-11T06:31:11;102131.53;;;21.58
24714;BMP280;12820;51.580;5.010;2022-08-11T06:36:51;102136.31;;;21.67
24714;BMP280;12820;51.580;5.010;2022-08-11T06:42:03;102128.34;;;21.72
24714;BMP280;12820;51.580;5.010;2022-08-11T06:47:16;102128.91;;;21.80
24714;BMP280;12820;51.580;5.010;2022-08-11T06:52:28;102119.22;;;21.88
24714;BMP280;12820;51.580;5.010;2022-08-11T06:57:38;102131.66;;;21.97
24714;BMP280;12820;51.580;5.010;2022-08-11T07:03:05;102129.56;;;22.06
24714;BMP280;12820;51.580;5.010;2022-08-11T07:14:04;102115.94;;;22.25
24714;BMP280;12820;51.580;5.010;2022-08-11T07:19:28;102121.47;;;22.36
24714;BMP280;12820;51.580;5.010;2022-08-11T07:25:02;102123.53;;;22.47
24714;BMP280;12820;51.580;5.010;2022-08-11T07:30:25;102125.59;;;22.59
24714;BMP280;12820;51.580;5.010;2022-08-11T07:35:33;102125.00;;;22.72
24714;BMP280;12820;51.580;5.010;2022-08-11T07:40:36;102126.06;;;22.86
24714;BMP280;12820;51.580;5.010;2022-08-11T07:45:45;102126.31;;;23.00
24714;BMP280;12820;51.580;5.010;2022-08-11T07:51:07;102123.19;;;23.12
24714;BMP280;12820;51.580;5.010;2022-08-11T07:56:27;102125.94;;;23.27
24714;BMP280;12820;51.580;5.010;2022-08-11T08:01:50;102131.06;;;23.45
24714;BMP280;12820;51.580;5.010;2022-08-11T08:07:11;102126.91;;;23.60
24714;BMP280;12820;51.580;5.010;2022-08-11T08:12:35;102118.31;;;23.78
24714;BMP280;12820;51.580;5.010;2022-08-11T08:17:57;102131.25;;;23.94
24714;BMP280;12820;51.580;5.010;2022-08-11T08:23:22;102129.44;;;24.13
24714;BMP280;12820;51.580;5.010;2022-08-11T08:28:35;102120.75;;;24.32
24714;BMP280;12820;51.580;5.010;2022-08-11T08:33:39;102115.59;;;24.48
24714;BMP280;12820;51.580;5.010;2022-08-11T08:38:50;102116.34;;;24.67
24714;BMP280;12820;51.580;5.010;2022-08-11T08:43:55;102118.00;;;24.84
24714;BMP280;12820;51.580;5.010;2022-08-11T08:49:18;102118.75;;;25.01
24714;BMP280;12820;51.580;5.010;2022-08-11T08:54:29;102120.34;;;25.19
24714;BMP280;12820;51.580;5.010;2022-08-11T08:59:40;102107.44;;;25.35
24714;BMP280;12820;51.580;5.010;2022-08-11T09:04:50;102109.13;;;25.51
24714;BMP280;12820;51.580;5.010;2022-08-11T09:09:55;102114.81;;;25.71
24714;BMP280;12820;51.580;5.010;2022-08-11T09:14:58;102111.25;;;25.89
24714;BMP280;12820;51.580;5.010;2022-08-11T09:20:13;102104.16;;;26.07
24714;BMP280;12820;51.580;5.010;2022-08-11T09:25:16;102103.06;;;26.25
24714;BMP280;12820;51.580;5.010;2022-08-11T09:30:43;102097.72;;;26.43
24714;BMP280;12820;51.580;5.010;2022-08-11T09:35:47;102094.69;;;26.64
24714;BMP280;12820;51.580;5.010;2022-08-11T09:40:51;102084.84;;;26.84
24714;BMP280;12820;51.580;5.010;2022-08-11T09:45:58;102086.25;;;27.03
24714;BMP280;12820;51.580;5.010;2022-08-11T09:51:01;102082.31;;;27.23
24714;BMP280;12820;51.580;5.010;2022-08-11T09:56:05;102080.91;;;27.45
24714;BMP280;12820;51.580;5.010;2022-08-11T10:01:30;102070.03;;;27.66
24714;BMP280;12820;51.580;5.010;2022-08-11T10:06:35;102060.91;;;27.86
24714;BMP280;12820;51.580;5.010;2022-08-11T10:11:58;102058.28;;;28.12
24714;BMP280;12820;51.580;5.010;2022-08-11T10:17:07;102055.44;;;28.41
24714;BMP280;12820;51.580;5.010;2022-08-11T10:22:09;102052.38;;;28.71
24714;BMP280;12820;51.580;5.010;2022-08-11T10:27:34;102050.19;;;29.02
24714;BMP280;12820;51.580;5.010;2022-08-11T10:32:57;102048.84;;;29.31
24714;BMP280;12820;51.580;5.010;2022-08-11T10:38:38;102044.56;;;29.65
24714;BMP280;12820;51.580;5.010;2022-08-11T10:43:41;102049.66;;;30.00
24714;BMP280;12820;51.580;5.010;2022-08-11T10:49:03;102045.28;;;30.34
24714;BMP280;12820;51.580;5.010;2022-08-11T10:54:05;102035.38;;;30.61
24714;BMP280;12820;51.580;5.010;2022-08-11T10:59:27;102020.75;;;30.92
24714;BMP280;12820;51.580;5.010;2022-08-11T11:10:02;102022.97;;;31.59
24714;BMP280;12820;51.580;5.010;2022-08-11T11:15:05;102014.75;;;31.83
24714;BMP280;12820;51.580;5.010;2022-08-11T11:20:29;102009.72;;;32.02
24714;BMP280;12820;51.580;5.010;2022-08-11T11:36:43;102003.25;;;32.75
24714;BMP280;12820;51.580;5.010;2022-08-11T11:41:48;102001.84;;;33.00
24714;BMP280;12820;51.580;5.010;2022-08-11T11:46:51;101984.69;;;33.25
24714;BMP280;12820;51.580;5.010;2022-08-11T11:51:54;101985.00;;;33.50
24714;BMP280;12820;51.580;5.010;2022-08-11T11:56:58;101992.66;;;33.79
24714;BMP280;12820;51.580;5.010;2022-08-11T12:02:21;101986.84;;;34.13
24714;BMP280;12820;51.580;5.010;2022-08-11T12:07:23;101970.84;;;34.25
24714;BMP280;12820;51.580;5.010;2022-08-11T12:12:44;101961.97;;;34.54
24714;BMP280;12820;51.580;5.010;2022-08-11T12:18:05;101954.25;;;34.62
24714;BMP280;12820;51.580;5.010;2022-08-11T12:23:08;101950.56;;;34.81
24714;BMP280;12820;51.580;5.010;2022-08-11T12:28:28;101945.66;;;35.12
24714;BMP280;12820;51.580;5.010;2022-08-11T12:33:31;101935.81;;;35.40
24714;BMP280;12820;51.580;5.010;2022-08-11T12:38:38;101941.31;;;35.72
24714;BMP280;12820;51.580;5.010;2022-08-11T12:43:44;101931.97;;;35.94
24714;BMP280;12820;51.580;5.010;2022-08-11T12:49:13;101924.09;;;36.19
24714;BMP280;12820;51.580;5.010;2022-08-11T12:59:45;101909.59;;;36.88
24714;BMP280;12820;51.580;5.010;2022-08-11T13:05:08;101914.41;;;37.23
24714;BMP280;12820;51.580;5.010;2022-08-11T13:10:16;101905.22;;;37.58
24714;BMP280;12820;51.580;5.010;2022-08-11T13:15:38;101890.22;;;37.98
24714;BMP280;12820;51.580;5.010;2022-08-11T13:20:41;101886.28;;;38.39
24714;BMP280;12820;51.580;5.010;2022-08-11T13:25:45;101881.03;;;38.69
24714;BMP280;12820;51.580;5.010;2022-08-11T13:30:49;101880.31;;;38.96
24714;BMP280;12820;51.580;5.010;2022-08-11T13:36:11;101876.91;;;39.18
24714;BMP280;12820;51.580;5.010;2022-08-11T13:41:13;101872.75;;;39.37
24714;BMP280;12820;51.580;5.010;2022-08-11T13:46:34;101868.63;;;39.57
24714;BMP280;12820;51.580;5.010;2022-08-11T13:51:37;101866.81;;;39.71
24714;BMP280;12820;51.580;5.010;2022-08-11T13:56:43;101871.22;;;39.93
24714;BMP280;12820;51.580;5.010;2022-08-11T14:01:56;101862.56;;;40.13
24714;BMP280;12820;51.580;5.010;2022-08-11T14:07:23;101854.44;;;40.28
24714;BMP280;12820;51.580;5.010;2022-08-11T14:12:29;101846.25;;;40.38
24714;BMP280;12820;51.580;5.010;2022-08-11T14:17:54;101845.59;;;40.50
24714;BMP280;12820;51.580;5.010;2022-08-11T14:22:58;101841.97;;;40.71
24714;BMP280;12820;51.580;5.010;2022-08-11T14:28:00;101828.94;;;40.90
24714;BMP280;12820;51.580;5.010;2022-08-11T14:33:23;101834.09;;;40.98
24714;BMP280;12820;51.580;5.010;2022-08-11T14:38:39;101828.63;;;40.99
24714;BMP280;12820;51.580;5.010;2022-08-11T14:43:43;101829.34;;;41.08
24714;BMP280;12820;51.580;5.010;2022-08-11T14:49:15;101825.16;;;41.19
24714;BMP280;12820;51.580;5.010;2022-08-11T14:54:17;101813.25;;;41.30
24714;BMP280;12820;51.580;5.010;2022-08-11T14:59:38;101818.06;;;41.47
24714;BMP280;12820;51.580;5.010;2022-08-11T15:04:41;101809.78;;;41.56
24714;BMP280;12820;51.580;5.010;2022-08-11T15:09:43;101800.50;;;41.66
24714;BMP280;12820;51.580;5.010;2022-08-11T15:15:07;101803.84;;;41.81
24714;BMP280;12820;51.580;5.010;2022-08-11T15:20:29;101796.38;;;41.90
24714;BMP280;12820;51.580;5.010;2022-08-11T15:26:01;101786.84;;;41.96
24714;BMP280;12820;51.580;5.010;2022-08-11T15:31:04;101781.13;;;41.99
24714;BMP280;12820;51.580;5.010;2022-08-11T15:36:26;101775.47;;;42.02
24714;BMP280;12820;51.580;5.010;2022-08-11T15:42:08;101775.69;;;42.13
24714;BMP280;12820;51.580;5.010;2022-08-11T15:47:37;101768.81;;;42.12
24714;BMP280;12820;51.580;5.010;2022-08-11T15:53:16;101769.84;;;42.17
24714;BMP280;12820;51.580;5.010;2022-08-11T15:58:19;101762.72;;;42.18
24714;BMP280;12820;51.580;5.010;2022-08-11T16:03:50;101755.59;;;42.12
24714;BMP280;12820;51.580;5.010;2022-08-11T16:09:14;101751.91;;;42.13
24714;BMP280;12820;51.580;5.010;2022-08-11T16:14:21;101751.06;;;41.93
24714;BMP280;12820;51.580;5.010;2022-08-11T16:19:43;101734.78;;;41.84
24714;BMP280;12820;51.580;5.010;2022-08-11T16:24:47;101734.72;;;41.77
24714;BMP280;12820;51.580;5.010;2022-08-11T16:30:10;101734.50;;;41.72
24714;BMP280;12820;51.580;5.010;2022-08-11T16:35:16;101728.50;;;41.51
24714;BMP280;12820;51.580;5.010;2022-08-11T16:40:38;101731.19;;;41.25
24714;BMP280;12820;51.580;5.010;2022-08-11T16:45:41;101729.50;;;41.11
24714;BMP280;12820;51.580;5.010;2022-08-11T16:51:06;101723.00;;;40.87
24714;BMP280;12820;51.580;5.010;2022-08-11T16:56:11;101715.63;;;40.56
24714;BMP280;12820;51.580;5.010;2022-08-11T17:01:19;101710.69;;;40.26
24714;BMP280;12820;51.580;5.010;2022-08-11T17:06:22;101705.50;;;39.98
24714;BMP280;12820;51.580;5.010;2022-08-11T17:11:51;101703.09;;;39.68
24714;BMP280;12820;51.580;5.010;2022-08-11T17:17:15;101707.31;;;39.34
24714;BMP280;12820;51.580;5.010;2022-08-11T17:22:19;101713.91;;;39.02
24714;BMP280;12820;51.580;5.010;2022-08-11T17:27:40;101704.06;;;38.68
24714;BMP280;12820;51.580;5.010;2022-08-11T17:32:48;101703.66;;;38.35
24714;BMP280;12820;51.580;5.010;2022-08-11T17:38:19;101714.72;;;38.01
24714;BMP280;12820;51.580;5.010;2022-08-11T17:43:22;101703.88;;;37.67
24714;BMP280;12820;51.580;5.010;2022-08-11T17:48:44;101702.25;;;37.28
24714;BMP280;12820;51.580;5.010;2022-08-11T17:53:49;101710.19;;;36.97
24714;BMP280;12820;51.580;5.010;2022-08-11T17:59:26;101709.91;;;36.61
24714;BMP280;12820;51.580;5.010;2022-08-11T18:04:51;101714.25;;;36.29
24714;BMP280;12820;51.580;5.010;2022-08-11T18:09:53;101723.84;;;35.98
24714;BMP280;12820;51.580;5.010;2022-08-11T18:15:14;101724.88;;;35.64
24714;BMP280;12820;51.580;5.010;2022-08-11T18:20:35;101728.47;;;35.31
24714;BMP280;12820;51.580;5.010;2022-08-11T18:25:59;101728.41;;;34.98
24714;BMP280;12820;51.580;5.010;2022-08-11T18:31:22;101728.94;;;34.67
24714;BMP280;12820;51.580;5.010;2022-08-11T18:36:48;101733.91;;;34.36
24714;BMP280;12820;51.580;5.010;2022-08-11T18:42:23;101738.78;;;34.05
24714;BMP280;12820;51.580;5.010;2022-08-11T18:47:47;101735.78;;;33.74
24714;BMP280;12820;51.580;5.010;2022-08-11T18:53:13;101732.63;;;33.44
24714;BMP280;12820;51.580;5.010;2022-08-11T18:58:35;101740.69;;;33.15
24714;BMP280;12820;51.580;5.010;2022-08-11T19:03:57;101755.41;;;32.88
24714;BMP280;12820;51.580;5.010;2022-08-11T19:09:20;101751.13;;;32.60
24714;BMP280;12820;51.580;5.010;2022-08-11T19:14:41;101750.03;;;32.34
24714;BMP280;12820;51.580;5.010;2022-08-11T19:20:06;101758.47;;;32.09
24714;BMP280;12820;51.580;5.010;2022-08-11T19:25:29;101761.63;;;31.83
24714;BMP280;12820;51.580;5.010;2022-08-11T19:30:52;101771.69;;;31.58
24714;BMP280;12820;51.580;5.010;2022-08-11T19:36:13;101779.06;;;31.33
24714;BMP280;12820;51.580;5.010;2022-08-11T19:41:36;101783.72;;;31.10
24714;BMP280;12820;51.580;5.010;2022-08-11T19:47:00;101783.69;;;30.90
24714;BMP280;12820;51.580;5.010;2022-08-11T19:52:22;101775.28;;;30.67
24714;BMP280;12820;51.580;5.010;2022-08-11T19:57:45;101777.00;;;30.46
24714;BMP280;12820;51.580;5.010;2022-08-11T20:03:09;101775.16;;;30.27
24714;BMP280;12820;51.580;5.010;2022-08-11T20:08:32;101780.97;;;30.09
24714;BMP280;12820;51.580;5.010;2022-08-11T20:14:00;101789.38;;;29.91
24714;BMP280;12820;51.580;5.010;2022-08-11T20:19:22;101789.81;;;29.74
24714;BMP280;12820;51.580;5.010;2022-08-11T20:24:57;101791.25;;;29.57
24714;BMP280;12820;51.580;5.010;2022-08-11T20:30:18;101790.75;;;29.41
24714;BMP280;12820;51.580;5.010;2022-08-11T20:35:39;101791.06;;;29.26
24714;BMP280;12820;51.580;5.010;2022-08-11T20:41:00;101794.09;;;29.09
24714;BMP280;12820;51.580;5.010;2022-08-11T20:46:24;101792.72;;;28.93
24714;BMP280;12820;51.580;5.010;2022-08-11T20:51:45;101795.50;;;28.80
24714;BMP280;12820;51.580;5.010;2022-08-11T20:57:08;101806.00;;;28.66
24714;BMP280;12820;51.580;5.010;2022-08-11T21:02:50;101798.53;;;28.51
24714;BMP280;12820;51.580;5.010;2022-08-11T21:08:14;101804.91;;;28.35
24714;BMP280;12820;51.580;5.010;2022-08-11T21:13:38;101809.28;;;28.22
24714;BMP280;12820;51.580;5.010;2022-08-11T21:19:15;101801.66;;;28.09
24714;BMP280;12820;51.580;5.010;2022-08-11T21:24:59;101800.03;;;27.96
24714;BMP280;12820;51.580;5.010;2022-08-11T21:30:20;101806.88;;;27.84
24714;BMP280;12820;51.580;5.010;2022-08-11T21:35:42;101799.97;;;27.73
24714;BMP280;12820;51.580;5.010;2022-08-11T21:41:04;101803.28;;;27.63
24714;BMP280;12820;51.580;5.010;2022-08-11T21:46:27;101798.94;;;27.51
24714;BMP280;12820;51.580;5.010;2022-08-11T21:51:47;101807.41;;;27.41
24714;BMP280;12820;51.580;5.010;2022-08-11T21:57:10;101808.22;;;27.29
24714;BMP280;12820;51.580;5.010;2022-08-11T22:02:33;101813.16;;;27.20
24714;BMP280;12820;51.580;5.010;2022-08-11T22:07:55;101802.81;;;27.08
24714;BMP280;12820;51.580;5.010;2022-08-11T22:13:16;101800.81;;;26.99
24714;BMP280;12820;51.580;5.010;2022-08-11T22:18:38;101804.09;;;26.89
24714;BMP280;12820;51.580;5.010;2022-08-11T22:24:03;101805.72;;;26.77
24714;BMP280;12820;51.580;5.010;2022-08-11T22:29:31;101801.25;;;26.67
24714;BMP280;12820;51.580;5.010;2022-08-11T22:34:52;101801.75;;;26.60
24714;BMP280;12820;51.580;5.010;2022-08-11T22:40:13;101801.06;;;26.44
24714;BMP280;12820;51.580;5.010;2022-08-11T22:45:33;101800.03;;;26.33
24714;BMP280;12820;51.580;5.010;2022-08-11T22:50:56;101792.88;;;26.24
24714;BMP280;12820;51.580;5.010;2022-08-11T22:56:18;101798.53;;;26.17
24714;BMP280;12820;51.580;5.010;2022-08-11T23:01:39;101788.59;;;26.11
24714;BMP280;12820;51.580;5.010;2022-08-11T23:07:00;101790.72;;;26.05
24714;BMP280;12820;51.580;5.010;2022-08-11T23:12:42;101797.91;;;26.00
24714;BMP280;12820;51.580;5.010;2022-08-11T23:18:03;101789.72;;;25.94
24714;BMP280;12820;51.580;5.010;2022-08-11T23:23:27;101790.09;;;25.88
24714;BMP280;12820;51.580;5.010;2022-08-11T23:28:48;101784.44;;;25.82
24714;BMP280;12820;51.580;5.010;2022-08-11T23:34:16;101795.03;;;25.77
24714;BMP280;12820;51.580;5.010;2022-08-11T23:39:57;101796.34;;;25.70
24714;BMP280;12820;51.580;5.010;2022-08-11T23:45:22;101794.22;;;25.63
24714;BMP280;12820;51.580;5.010;2022-08-11T23:50:43;101798.88;;;25.57
24714;BMP280;12820;51.580;5.010;2022-08-11T23:56:04;101795.97;;;25.49
